Time;durP1;ratioP1;P1;durP2;ratioP2;P2;SDS_P1;SDS_P2;PMS_P1;PMS_P2;Temp;Humidity;BMP_temperature;BMP_pressure;BME280_temperature;BME280_humidity;BME280_pressure;Samples;Min_cycle;Max_cycle;Signal;HPM_P1;HPM_P2
2022/07/09 00:02:08;;;;;;;8.38;3.63;;;;;;;15.14;100.00;97733.81;5035409;28;20068;-73
2022/07/09 00:04:34;;;;;;;9.32;3.50;;;;;;;14.96;100.00;97734.91;5036491;28;20032;-72
2022/07/09 00:07:00;;;;;;;7.97;4.13;;;;;;;14.90;100.00;97737.75;5037246;28;20033;-72
2022/07/09 00:09:25;;;;;;;6.53;3.40;;;;;;;14.87;100.00;97733.69;5035363;28;20039;-73
2022/07/09 00:11:52;;;;;;;9.93;3.70;;;;;;;14.92;100.00;97738.31;5035618;28;20041;-72
2022/07/09 00:14:17;;;;;;;8.30;3.78;;;;;;;14.85;100.00;97741.16;5037617;28;20031;-73
2022/07/09 00:16:43;;;;;;;8.90;3.55;;;;;;;14.82;100.00;97727.38;5038251;28;20581;-72
2022/07/09 00:19:11;;;;;;;6.60;3.55;;;;;;;14.82;100.00;97740.84;5036742;28;20319;-73
2022/07/09 00:21:36;;;;;;;6.50;3.80;;;;;;;14.82;100.00;97738.97;5036479;28;20036;-73
2022/07/09 00:24:02;;;;;;;6.68;3.97;;;;;;;14.77;100.00;97734.31;5036578;28;20115;-72
2022/07/09 00:26:27;;;;;;;11.95;3.55;;;;;;;14.77;100.00;97739.69;5037440;28;20071;-73
2022/07/09 00:28:53;;;;;;;6.05;3.53;;;;;;;14.73;100.00;97738.56;5049859;28;20484;-72
2022/07/09 00:31:18;;;;;;;6.72;3.75;;;;;;;14.74;100.00;97740.19;5038231;28;20043;-73
2022/07/09 00:33:43;;;;;;;6.97;3.50;;;;;;;14.68;100.00;97735.78;5036361;28;20052;-72
2022/07/09 00:36:09;;;;;;;7.90;4.18;;;;;;;14.68;100.00;97734.97;5039022;28;20662;-72
2022/07/09 00:38:34;;;;;;;7.70;3.95;;;;;;;14.62;100.00;97735.94;5036545;28;20150;-73
2022/07/09 00:41:01;;;;;;;9.02;3.90;;;;;;;14.56;100.00;97732.34;5036239;28;20490;-72
2022/07/09 00:43:26;;;;;;;9.93;4.07;;;;;;;14.57;100.00;97735.88;5038475;28;20130;-72
2022/07/09 00:45:52;;;;;;;9.80;4.20;;;;;;;14.56;100.00;97732.34;5038197;28;20130;-72
2022/07/09 00:48:19;;;;;;;6.38;3.83;;;;;;;14.41;100.00;97732.06;5034876;28;20028;-72
2022/07/09 00:50:45;;;;;;;8.68;4.00;;;;;;;14.20;100.00;97733.53;5038602;28;20422;-72
2022/07/09 00:53:14;;;;;;;5.75;3.90;;;;;;;14.14;100.00;97727.22;5035173;28;20037;-72
2022/07/09 00:55:41;;;;;;;6.65;3.88;;;;;;;14.13;100.00;97722.09;5038404;28;20040;-72
2022/07/09 00:58:08;;;;;;;7.70;3.92;;;;;;;14.16;100.00;97717.06;5034450;28;20086;-72
2022/07/09 01:00:37;;;;;;;8.30;4.15;;;;;;;14.14;100.00;97719.16;5040202;28;20123;-73
2022/07/09 01:03:03;;;;;;;5.50;3.40;;;;;;;14.18;100.00;97719.50;5039216;28;20033;-72
2022/07/09 01:05:35;;;;;;;7.10;3.67;;;;;;;14.16;100.00;97722.44;5041532;28;20044;-73
2022/07/09 01:08:06;;;;;;;8.95;4.05;;;;;;;14.16;100.00;97722.44;5037058;28;20120;-72
2022/07/09 01:10:33;;;;;;;7.90;3.33;;;;;;;14.17;100.00;97716.00;5036066;28;20029;-72
2022/07/09 01:12:59;;;;;;;11.00;3.67;;;;;;;14.16;100.00;97711.69;5038978;28;20024;-72
2022/07/09 01:15:25;;;;;;;8.70;3.90;;;;;;;14.18;100.00;97708.75;5035770;28;20068;-72
2022/07/09 01:17:52;;;;;;;7.15;3.70;;;;;;;14.03;100.00;97709.28;5036899;28;20123;-72
2022/07/09 01:20:25;;;;;;;5.10;3.30;;;;;;;14.01;100.00;97713.25;5035535;28;20044;-72
2022/07/09 01:22:51;;;;;;;6.97;3.72;;;;;;;14.00;100.00;97707.03;5035268;28;20930;-72
2022/07/09 01:25:18;;;;;;;8.23;3.45;;;;;;;14.02;100.00;97704.13;5037379;28;20060;-72
2022/07/09 01:27:44;;;;;;;8.68;3.80;;;;;;;14.02;100.00;97698.75;5037742;28;20539;-72
2022/07/09 01:30:10;;;;;;;7.88;3.55;;;;;;;14.01;100.00;97705.16;5033600;28;20041;-73
2022/07/09 01:32:36;;;;;;;6.75;3.58;;;;;;;14.02;100.00;97699.56;5037243;28;20037;-72
2022/07/09 01:35:03;;;;;;;7.88;3.35;;;;;;;14.01;100.00;97697.94;5035632;28;20040;-73
2022/07/09 01:37:28;;;;;;;9.05;3.40;;;;;;;13.92;100.00;97689.41;5038294;28;20037;-72
2022/07/09 01:39:54;;;;;;;11.55;3.60;;;;;;;13.94;100.00;97691.88;5034897;28;20118;-72
2022/07/09 01:42:19;;;;;;;7.80;3.78;;;;;;;13.94;100.00;97695.38;5033775;28;20377;-72
2022/07/09 01:44:48;;;;;;;7.60;3.65;;;;;;;13.84;100.00;97687.09;5035474;28;20029;-72
2022/07/09 01:47:14;;;;;;;8.40;3.85;;;;;;;13.82;100.00;97688.41;5035827;28;20098;-72
2022/07/09 01:49:40;;;;;;;9.38;3.58;;;;;;;13.79;100.00;97686.19;5031368;28;20072;-73
2022/07/09 01:52:06;;;;;;;6.28;3.30;;;;;;;13.69;100.00;97684.09;5035441;28;20114;-72
2022/07/09 01:54:32;;;;;;;7.78;3.70;;;;;;;13.68;100.00;97685.16;5034435;28;20766;-72
2022/07/09 01:56:57;;;;;;;7.57;3.67;;;;;;;13.68;100.00;97679.78;5036311;28;20245;-72
2022/07/09 01:59:23;;;;;;;6.05;3.38;;;;;;;13.72;100.00;97677.44;5035785;28;20166;-72
2022/07/09 02:01:48;;;;;;;11.10;4.68;;;;;;;13.72;100.00;97675.56;5035613;28;20124;-72
2022/07/09 02:04:14;;;;;;;9.30;4.05;;;;;;;13.72;100.00;97670.19;5049194;28;20048;-72
2022/07/09 02:06:39;;;;;;;8.82;3.70;;;;;;;13.69;100.00;97672.53;5035658;28;20245;-72
2022/07/09 02:09:05;;;;;;;6.63;3.80;;;;;;;13.69;100.00;97672.53;5033362;28;20460;-72
2022/07/09 02:11:30;;;;;;;6.65;4.07;;;;;;;13.66;100.00;97666.56;5034457;28;20095;-72
2022/07/09 02:13:55;;;;;;;8.05;3.75;;;;;;;13.68;100.00;97666.34;5034838;28;20049;-72
2022/07/09 02:16:21;;;;;;;15.45;4.18;;;;;;;13.66;100.00;97665.75;5049085;28;20045;-72
2022/07/09 02:18:46;;;;;;;6.65;3.63;;;;;;;13.61;100.00;97660.28;5033277;28;20037;-72
2022/07/09 02:21:12;;;;;;;10.05;3.63;;;;;;;13.44;100.00;97662.91;5047890;28;20618;-72
2022/07/09 02:23:37;;;;;;;9.93;3.92;;;;;;;13.19;100.00;97662.34;5035820;28;20032;-72
2022/07/09 02:26:03;;;;;;;6.03;3.72;;;;;;;13.11;100.00;97656.25;5035268;28;20099;-72
2022/07/09 02:28:31;;;;;;;8.95;4.30;;;;;;;13.06;100.00;97661.50;5035280;28;20103;-72
2022/07/09 02:30:57;;;;;;;7.88;4.15;;;;;;;13.03;100.00;97658.50;5034312;28;20118;-72
2022/07/09 02:33:23;;;;;;;8.30;3.88;;;;;;;13.06;100.00;97653.44;5036289;28;20077;-72
2022/07/09 02:35:49;;;;;;;7.55;3.88;;;;;;;13.14;100.00;97654.97;5034912;28;20369;-72
2022/07/09 02:38:14;;;;;;;6.97;3.80;;;;;;;13.19;100.00;97652.41;5034520;28;20280;-72
2022/07/09 02:40:40;;;;;;;8.77;4.25;;;;;;;13.21;100.00;97649.50;5032970;28;20033;-72
2022/07/09 02:43:05;;;;;;;8.73;4.15;;;;;;;13.22;100.00;97656.50;5034924;28;20037;-72
2022/07/09 02:45:31;;;;;;;7.47;4.00;;;;;;;12.90;100.00;97651.47;5034575;28;20073;-72
2022/07/09 02:47:59;;;;;;;9.00;4.60;;;;;;;12.90;100.00;97656.84;5033569;28;20025;-72
2022/07/09 02:50:25;;;;;;;7.07;4.30;;;;;;;12.76;100.00;97655.44;5033741;28;20079;-73
2022/07/09 02:52:50;;;;;;;8.98;4.38;;;;;;;12.78;100.00;97656.88;5036933;28;20108;-72
2022/07/09 02:55:16;;;;;;;9.18;4.20;;;;;;;12.86;100.00;97641.44;5034065;28;20336;-72
2022/07/09 02:57:41;;;;;;;8.40;4.35;;;;;;;12.86;100.00;97657.56;5034095;28;20376;-72
2022/07/09 03:00:08;;;;;;;11.40;4.55;;;;;;;12.63;100.00;97650.31;5034343;28;20053;-72
2022/07/09 03:02:33;;;;;;;8.77;4.90;;;;;;;12.69;100.00;97657.44;5034554;28;20025;-72
2022/07/09 03:04:58;;;;;;;9.60;4.57;;;;;;;12.68;100.00;97645.06;5032036;28;20048;-72
2022/07/09 03:07:24;;;;;;;8.75;4.68;;;;;;;12.52;100.00;97651.94;5034389;28;20068;-72
2022/07/09 03:09:49;;;;;;;9.82;4.63;;;;;;;12.58;100.00;97650.19;5033346;28;20564;-72
2022/07/09 03:12:15;;;;;;;7.30;4.90;;;;;;;12.57;100.00;97644.00;5034865;28;20071;-72
2022/07/09 03:14:41;;;;;;;6.47;4.43;;;;;;;12.71;100.00;97636.53;5034792;28;20132;-72
2022/07/09 03:17:06;;;;;;;7.53;4.53;;;;;;;12.81;100.00;97634.09;5032270;28;20415;-72
2022/07/09 03:19:32;;;;;;;9.73;4.70;;;;;;;12.83;100.00;97637.34;5034208;28;20349;-72
2022/07/09 03:21:57;;;;;;;12.73;5.05;;;;;;;12.87;100.00;97641.22;5034627;28;20041;-73
2022/07/09 03:24:23;;;;;;;9.43;4.90;;;;;;;12.89;100.00;97641.78;5031983;28;20273;-72
2022/07/09 03:26:49;;;;;;;7.53;4.70;;;;;;;12.92;100.00;97635.97;5048741;28;20025;-72
2022/07/09 03:29:14;;;;;;;7.57;4.47;;;;;;;12.95;100.00;97631.97;5032400;28;20539;-72
2022/07/09 03:31:40;;;;;;;11.13;4.55;;;;;;;12.96;100.00;97623.69;5034241;28;20138;-72
2022/07/09 03:34:05;;;;;;;9.23;5.10;;;;;;;13.03;100.00;97631.63;5033571;28;20045;-72
2022/07/09 03:36:34;;;;;;;7.88;4.75;;;;;;;13.09;100.00;97636.88;5033884;28;20078;-72
2022/07/09 03:39:00;;;;;;;8.93;4.70;;;;;;;13.15;100.00;97628.91;5030799;28;20138;-73
2022/07/09 03:41:25;;;;;;;8.80;4.68;;;;;;;13.20;100.00;97629.88;5033873;28;20037;-72
2022/07/09 03:43:50;;;;;;;8.85;4.93;;;;;;;13.16;100.00;97625.19;5035835;28;20037;-72
2022/07/09 03:46:16;;;;;;;15.65;5.68;;;;;;;13.19;100.00;97627.38;5033625;28;20428;-72
2022/07/09 03:48:41;;;;;;;8.40;5.28;;;;;;;13.18;100.00;97623.88;5032833;28;20272;-73
2022/07/09 03:51:07;;;;;;;6.07;4.57;;;;;;;13.11;100.00;97620.50;5032467;28;20032;-72
2022/07/09 03:53:33;;;;;;;8.38;5.07;;;;;;;13.00;100.00;97632.91;5035086;28;20048;-73
2022/07/09 03:55:58;;;;;;;8.85;4.72;;;;;;;13.02;100.00;97628.13;5049063;28;20064;-72
2022/07/09 03:58:23;;;;;;;9.20;5.25;;;;;;;12.99;100.00;97627.75;5032444;28;20037;-72
2022/07/09 04:00:49;;;;;;;8.85;5.25;;;;;;;12.92;100.00;97627.91;5032721;28;20515;-72
2022/07/09 04:03:14;;;;;;;8.85;5.85;;;;;;;12.90;100.00;97626.47;5034017;28;20045;-72
2022/07/09 04:05:41;;;;;;;7.47;5.47;;;;;;;12.89;100.00;97625.66;5033560;28;20037;-72
2022/07/09 04:08:07;;;;;;;9.75;6.00;;;;;;;12.92;100.00;97627.91;5033373;28;20072;-72
2022/07/09 04:10:32;;;;;;;8.85;5.72;;;;;;;12.99;100.00;97633.13;5034765;28;20029;-72
2022/07/09 04:12:58;;;;;;;10.43;5.15;;;;;;;13.00;100.00;97627.53;5034435;28;20037;-72
2022/07/09 04:15:23;;;;;;;7.78;5.45;;;;;;;13.04;100.00;97631.38;5031347;28;20040;-72
2022/07/09 04:17:48;;;;;;;8.00;5.65;;;;;;;13.11;100.00;97633.94;5033638;28;20045;-72
2022/07/09 04:20:14;;;;;;;16.33;5.88;;;;;;;13.14;100.00;97632.66;5033167;28;20123;-72
2022/07/09 04:22:39;;;;;;;9.30;5.05;;;;;;;13.13;100.00;97637.22;5032693;28;20067;-72
2022/07/09 04:25:05;;;;;;;6.72;5.00;;;;;;;13.08;100.00;97637.13;5032465;28;20484;-72
2022/07/09 04:27:31;;;;;;;9.43;5.40;;;;;;;13.08;100.00;97637.94;5032550;28;20087;-72
2022/07/09 04:29:57;;;;;;;7.68;4.80;;;;;;;13.10;100.00;97641.19;5031678;28;20029;-72
2022/07/09 04:32:23;;;;;;;14.32;6.28;;;;;;;13.15;100.00;97643.19;5034391;28;21328;-73
2022/07/09 04:34:48;;;;;;;10.48;6.13;;;;;;;13.35;100.00;97640.94;5033640;28;20029;-72
2022/07/09 04:37:14;;;;;;;10.90;6.28;;;;;;;13.69;100.00;97646.44;5032384;28;20049;-73
2022/07/09 04:39:39;;;;;;;10.32;5.53;;;;;;;13.89;100.00;97640.66;5035668;28;20035;-73
2022/07/09 04:42:05;;;;;;;13.57;6.43;;;;;;;13.98;100.00;97643.78;5036950;28;20513;-73
2022/07/09 04:44:30;;;;;;;12.57;6.80;;;;;;;13.97;100.00;97642.13;5038394;28;20439;-73
2022/07/09 04:46:56;;;;;;;12.20;7.20;;;;;;;13.97;100.00;97637.56;5034210;28;20048;-73
2022/07/09 04:49:24;;;;;;;14.27;7.45;;;;;;;13.97;100.00;97642.94;5034926;28;20033;-74
2022/07/09 04:51:49;;;;;;;19.15;10.27;;;;;;;13.90;100.00;97642.28;5037305;28;20095;-74
2022/07/09 04:54:15;;;;;;;18.15;10.52;;;;;;;14.02;100.00;97647.63;5035414;28;20041;-74
2022/07/09 04:56:40;;;;;;;30.10;13.38;;;;;;;14.14;100.00;97645.66;5036626;28;20450;-73
2022/07/09 04:59:06;;;;;;;30.05;14.55;;;;;;;14.27;100.00;97634.59;5035311;28;20323;-74
2022/07/09 05:01:32;;;;;;;27.10;13.88;;;;;;;14.48;100.00;97631.22;5037727;28;20464;-74
2022/07/09 05:03:58;;;;;;;35.85;14.77;;;;;;;14.71;100.00;97632.13;5035914;28;20029;-74
2022/07/09 05:06:24;;;;;;;28.10;14.23;;;;;;;14.84;100.00;97628.25;5035787;28;20041;-74
2022/07/09 05:08:50;;;;;;;28.85;13.57;;;;;;;14.93;100.00;97638.34;5037963;28;20029;-74
2022/07/09 05:11:15;;;;;;;18.98;11.27;;;;;;;14.97;100.00;97633.31;5036657;28;20052;-74
2022/07/09 05:13:41;;;;;;;24.60;11.88;;;;;;;15.07;100.00;97633.44;5039109;28;20065;-74
2022/07/09 05:16:08;;;;;;;25.27;11.38;;;;;;;15.23;100.00;97623.69;5036399;28;20045;-73
2022/07/09 05:18:33;;;;;;;20.67;10.27;;;;;;;15.37;100.00;97624.13;5034869;28;20057;-74
2022/07/09 05:20:59;;;;;;;25.42;11.43;;;;;;;15.51;100.00;97625.38;5033933;28;20045;-74
2022/07/09 05:23:27;;;;;;;17.33;10.77;;;;;;;15.66;100.00;97622.09;5037442;28;20062;-74
2022/07/09 05:25:53;;;;;;;19.75;9.65;;;;;;;15.75;100.00;97626.78;5035387;28;20044;-74
2022/07/09 05:28:18;;;;;;;22.05;10.27;;;;;;;15.86;100.00;97625.00;5034095;28;20029;-73
2022/07/09 05:30:44;;;;;;;21.95;9.88;;;;;;;15.97;100.00;97623.22;5035800;28;20044;-74
2022/07/09 05:33:09;;;;;;;18.90;9.73;;;;;;;16.03;100.00;97623.03;5035603;28;20579;-73
2022/07/09 05:35:35;;;;;;;16.63;8.90;;;;;;;16.07;100.00;97626.84;5036686;28;20040;-74
2022/07/09 05:38:03;;;;;;;20.35;10.10;;;;;;;16.11;100.00;97632.56;5039434;28;20620;-73
2022/07/09 05:40:29;;;;;;;13.20;8.07;;;;;;;16.10;100.00;97629.00;5036229;28;20123;-74
2022/07/09 05:42:55;;;;;;;17.65;9.38;;;;;;;16.14;100.00;97637.44;5032556;28;20589;-73
2022/07/09 05:45:20;;;;;;;14.15;8.43;;;;;;;16.19;100.00;97640.19;5035401;28;20046;-73
2022/07/09 05:47:46;;;;;;;16.90;8.70;;;;;;;16.20;100.00;97635.59;5037109;28;20033;-73
2022/07/09 05:50:11;;;;;;;13.77;7.68;;;;;;;16.20;100.00;97641.00;5035209;28;20542;-74
2022/07/09 05:52:37;;;;;;;15.88;7.32;;;;;;;16.23;100.00;97633.19;5037770;28;20036;-74
2022/07/09 05:55:03;;;;;;;14.38;7.90;;;;;;;16.26;100.00;97642.66;5034757;28;20116;-73
2022/07/09 05:57:29;;;;;;;16.27;7.63;;;;;;;16.21;100.00;97643.44;5032748;28;20123;-73
2022/07/09 05:59:55;;;;;;;16.58;7.75;;;;;;;16.23;100.00;97637.78;5033744;28;20029;-74
2022/07/09 06:02:22;;;;;;;12.18;7.22;;;;;;;16.25;100.00;97641.84;5034830;28;20106;-73
2022/07/09 06:04:47;;;;;;;21.10;7.78;;;;;;;16.30;100.00;97644.59;5035324;28;20540;-73
2022/07/09 06:07:13;;;;;;;14.85;7.88;;;;;;;16.32;100.00;97644.34;5050932;28;20028;-73
2022/07/09 06:09:38;;;;;;;15.57;7.28;;;;;;;16.31;100.00;97637.31;5035195;28;20426;-73
2022/07/09 06:12:04;;;;;;;14.90;7.70;;;;;;;16.35;100.00;97641.16;5033366;28;20041;-73
2022/07/09 06:14:30;;;;;;;15.77;7.43;;;;;;;16.36;100.00;97642.78;5037345;28;20033;-73
2022/07/09 06:16:55;;;;;;;15.02;7.55;;;;;;;16.40;100.00;97638.47;5034774;28;20037;-73
2022/07/09 06:19:21;;;;;;;21.40;7.78;;;;;;;16.53;100.00;97634.53;5038267;28;20496;-73
2022/07/09 06:21:46;;;;;;;17.17;7.85;;;;;;;16.59;100.00;97645.13;5036244;28;20033;-73
2022/07/09 06:24:12;;;;;;;14.23;7.35;;;;;;;16.67;100.00;97633.03;5035507;28;20047;-73
2022/07/09 06:26:38;;;;;;;13.52;7.38;;;;;;;16.79;100.00;97628.25;5035300;28;20032;-73
2022/07/09 06:29:03;;;;;;;11.88;7.50;;;;;;;16.88;100.00;97637.50;5033988;28;20341;-73
2022/07/09 06:31:29;;;;;;;14.27;7.35;;;;;;;16.95;100.00;97632.69;5035231;28;20293;-74
2022/07/09 06:33:54;;;;;;;14.52;8.20;;;;;;;17.04;100.00;97634.91;5036959;28;20044;-73
2022/07/09 06:36:20;;;;;;;16.02;7.53;;;;;;;17.07;100.00;97632.50;5033974;28;20099;-74
2022/07/09 06:41:29;;;;;;;15.73;8.15;;;;;;;17.20;100.00;97640.16;5035746;28;20037;-74
2022/07/09 06:43:54;;;;;;;9.70;7.32;;;;;;;17.26;100.00;97635.59;5035838;28;20035;-74
2022/07/09 06:46:20;;;;;;;11.98;7.53;;;;;;;17.35;100.00;97639.41;5033907;28;20071;-73
2022/07/09 06:48:45;;;;;;;15.70;8.20;;;;;;;17.44;100.00;97643.25;5036468;28;20037;-74
2022/07/09 06:51:11;;;;;;;16.88;8.00;;;;;;;17.54;100.00;97637.88;5034029;28;20441;-74
2022/07/09 06:53:37;;;;;;;16.55;8.18;;;;;;;17.65;100.00;97624.38;5034382;28;20064;-74
2022/07/09 06:56:03;;;;;;;16.23;8.88;;;;;;;17.64;100.00;97631.69;5034743;28;20036;-74
2022/07/09 06:58:28;;;;;;;17.05;9.40;;;;;;;17.66;100.00;97634.13;5036412;28;20033;-74
2022/07/09 07:00:54;;;;;;;17.75;9.30;;;;;;;17.72;100.00;97633.09;5035690;28;20037;-73
2022/07/09 07:03:19;;;;;;;15.02;8.80;;;;;;;17.78;100.00;97632.88;5031893;28;20434;-74
2022/07/09 07:05:47;;;;;;;16.98;9.45;;;;;;;17.81;100.00;97635.03;5032485;28;20574;-74
2022/07/09 07:08:12;;;;;;;18.67;9.43;;;;;;;17.71;100.00;97634.19;5035148;28;20083;-73
2022/07/09 07:10:38;;;;;;;18.48;9.55;;;;;;;17.67;100.00;97633.06;5031609;28;20049;-72
2022/07/09 07:13:03;;;;;;;18.05;10.27;;;;;;;17.78;100.00;97629.34;5035438;28;20041;-74
2022/07/09 07:15:28;;;;;;;18.67;11.82;;;;;;;17.98;100.00;97628.59;5035758;28;20029;-73
2022/07/09 07:17:54;;;;;;;23.30;10.52;;;;;;;17.94;100.00;97631.00;5036893;28;20048;-73
2022/07/09 07:20:22;;;;;;;22.42;10.52;;;;;;;17.84;100.00;97624.75;5035938;28;20052;-72
2022/07/09 07:22:48;;;;;;;19.05;10.70;;;;;;;17.71;100.00;97621.47;5036040;28;20033;-73
2022/07/09 07:25:13;;;;;;;18.65;10.68;;;;;;;17.54;100.00;97627.06;5034817;28;20044;-72
2022/07/09 07:27:39;;;;;;;19.58;11.55;;;;;;;17.50;100.00;97630.56;5035736;28;20103;-73
2022/07/09 07:30:05;;;;;;;20.00;12.15;;;;;;;17.43;100.00;97632.69;5034057;28;20037;-73
2022/07/09 07:32:31;;;;;;;20.05;10.90;;;;;;;17.39;100.00;97626.19;5030563;28;20519;-73
2022/07/09 07:34:56;;;;;;;24.73;11.45;;;;;;;17.54;100.00;97628.97;5033526;28;20052;-73
2022/07/09 07:37:22;;;;;;;20.98;12.05;;;;;;;17.56;100.00;97632.22;5032192;28;20407;-73
2022/07/09 07:39:47;;;;;;;21.73;12.27;;;;;;;17.70;100.00;97630.66;5033062;28;20117;-73
2022/07/09 07:42:15;;;;;;;19.20;11.02;;;;;;;17.86;100.00;97630.72;5033515;28;20532;-73
2022/07/09 07:44:41;;;;;;;20.27;12.10;;;;;;;18.27;100.00;97626.19;5032199;28;20033;-73
2022/07/09 07:47:07;;;;;;;23.65;11.50;;;;;;;18.65;100.00;97617.56;5035740;28;20083;-74
2022/07/09 07:49:32;;;;;;;23.05;11.70;;;;;;;18.99;100.00;97625.13;5035033;28;20431;-71
2022/07/09 07:51:58;;;;;;;20.02;12.65;;;;;;;19.21;100.00;97620.16;5034847;28;20199;-72
2022/07/09 07:54:23;;;;;;;22.67;12.20;;;;;;;19.56;100.00;97623.84;5002567;28;20055;-71
2022/07/09 07:56:50;;;;;;;19.70;11.45;;;;;;;19.72;100.00;97617.28;5036054;28;20035;-72
2022/07/09 07:59:16;;;;;;;20.77;12.60;;;;;;;19.51;100.00;97623.88;5032851;28;20424;-71
2022/07/09 08:01:42;;;;;;;21.38;12.63;;;;;;;19.66;100.00;97623.84;5031489;28;20033;-72
2022/07/09 08:04:07;;;;;;;17.83;12.38;;;;;;;19.93;100.00;97626.16;5033294;28;20037;-71
2022/07/09 08:06:34;;;;;;;22.33;11.05;;;;;;;19.95;100.00;97620.44;5032517;28;20492;-72
2022/07/09 08:08:59;;;;;;;14.65;7.57;;;;;;;20.01;100.00;97622.84;5033857;28;20120;-71
2022/07/09 08:11:25;;;;;;;12.68;6.63;;;;;;;19.93;100.00;97622.63;5032088;28;20036;-72
2022/07/09 08:13:50;;;;;;;12.75;5.78;;;;;;;19.61;100.00;97631.19;5034391;28;20047;-72
2022/07/09 08:16:16;;;;;;;14.88;6.68;;;;;;;19.71;100.00;97629.25;5034557;28;20479;-72
2022/07/09 08:18:41;;;;;;;14.85;6.72;;;;;;;19.89;100.00;97624.28;5037293;28;20049;-72
2022/07/09 08:21:07;;;;;;;10.05;6.07;;;;;;;19.89;100.00;97619.66;5036571;28;20455;-72
2022/07/09 08:23:50;;;;;;;11.65;5.63;;;;;;;19.89;100.00;97619.66;5032897;28;20036;-73
2022/07/09 08:26:20;;;;;;;7.13;4.25;;;;;;;19.99;100.00;97630.44;5037188;28;20421;-72
2022/07/09 08:28:45;;;;;;;9.85;3.88;;;;;;;19.49;100.00;97626.88;5034860;28;20115;-72
2022/07/09 08:31:11;;;;;;;8.27;4.20;;;;;;;19.65;100.00;97626.84;5036168;28;20045;-72
2022/07/09 08:33:37;;;;;;;10.00;3.95;;;;;;;19.84;100.00;97624.28;5035821;28;20275;-73
2022/07/09 08:36:03;;;;;;;7.20;3.35;;;;;;;19.79;100.00;97614.28;5036541;28;20383;-73
2022/07/09 08:38:28;;;;;;;8.23;3.42;;;;;;;19.85;100.00;97612.34;5038465;28;20029;-72
2022/07/09 08:40:56;;;;;;;6.00;2.28;;;;;;;19.86;100.00;97608.53;5040219;28;20044;-72
2022/07/09 08:43:21;;;;;;;10.98;2.47;;;;;;;20.17;100.00;97607.25;5037767;28;20408;-73
2022/07/09 08:45:50;;;;;;;6.53;2.53;;;;;;;20.19;100.00;97610.50;5041548;28;20033;-72
2022/07/09 08:48:16;;;;;;;6.80;2.60;;;;;;;20.43;100.00;97609.78;5040147;28;20506;-72
2022/07/09 08:50:41;;;;;;;4.22;2.22;;;;;;;20.50;100.00;97604.88;5038174;28;20044;-73
2022/07/09 08:53:09;;;;;;;4.22;1.88;;;;;;;20.40;100.00;97604.94;5007432;28;20749;-73
2022/07/09 08:55:36;;;;;;;6.40;1.88;;;;;;;20.34;100.00;97614.22;5036521;28;20098;-73
2022/07/09 08:58:01;;;;;;;4.68;2.20;;;;;;;20.14;100.00;97610.53;5040774;28;20033;-72
2022/07/09 09:00:26;;;;;;;5.82;2.30;;;;;;;19.84;100.00;97608.00;5036615;28;20399;-72
2022/07/09 09:02:52;;;;;;;8.55;2.00;;;;;;;19.83;100.00;97612.63;5036217;28;20364;-72
2022/07/09 09:05:17;;;;;;;5.03;2.30;;;;;;;20.02;100.00;97601.94;5036063;28;20513;-72
2022/07/09 09:07:43;;;;;;;7.80;2.80;;;;;;;20.25;100.00;97603.94;5039832;28;20779;-73
2022/07/09 09:10:20;;;;;;;6.85;2.65;;;;;;;20.48;100.00;97599.72;5034394;28;20033;-72
2022/07/09 09:12:45;;;;;;;6.20;2.90;;;;;;;20.83;100.00;97593.13;5036633;28;20060;-73
2022/07/09 09:15:11;;;;;;;9.73;3.10;;;;;;;21.15;100.00;97594.44;5034625;28;20160;-72
2022/07/09 09:17:43;;;;;;;8.57;3.17;;;;;;;21.37;100.00;97594.75;5035880;28;20056;-73
2022/07/09 09:20:13;;;;;;;5.25;2.97;;;;;;;21.39;100.00;97592.56;5038775;28;20044;-72
2022/07/09 09:22:46;;;;;;;6.78;3.55;;;;;;;20.86;100.00;97592.56;5038506;28;20036;-73
2022/07/09 09:25:24;;;;;;;10.93;3.60;;;;;;;20.46;100.00;97593.72;5033386;28;20361;-73
2022/07/09 09:27:54;;;;;;;4.95;3.83;;;;;;;20.11;100.00;97592.06;5036837;28;20044;-73
2022/07/09 09:30:19;;;;;;;8.70;3.40;;;;;;;20.28;100.00;97591.69;5035182;28;20036;-72
2022/07/09 09:32:55;;;;;;;5.68;3.70;;;;;;;20.86;100.00;97586.31;5038147;28;20029;-72
2022/07/09 09:35:20;;;;;;;5.25;3.35;;;;;;;21.67;100.00;97595.50;5033804;28;20032;-73
2022/07/09 09:37:46;;;;;;;6.78;3.58;;;;;;;22.17;100.00;97582.25;5035851;28;20065;-73
2022/07/09 09:40:12;;;;;;;8.57;3.80;;;;;;;22.71;100.00;97578.09;5035998;28;20055;-73
2022/07/09 09:42:41;;;;;;;5.03;2.90;;;;;;;22.56;100.00;97583.81;5036679;28;20031;-73
2022/07/09 09:45:08;;;;;;;4.88;2.60;;;;;;;22.47;100.00;97576.31;5035786;28;20115;-73
2022/07/09 09:47:33;;;;;;;4.90;2.10;;;;;;;22.30;97.84;97572.53;5036698;28;20033;-73
2022/07/09 09:50:01;;;;;;;8.35;2.55;;;;;;;22.45;98.91;97572.28;5038645;28;20045;-73
2022/07/09 09:52:26;;;;;;;5.85;2.70;;;;;;;22.17;100.00;97583.06;5040537;28;20044;-73
2022/07/09 09:54:54;;;;;;;6.90;2.70;;;;;;;22.13;100.00;97573.06;5010315;28;20545;-73
2022/07/09 09:57:24;;;;;;;6.57;2.53;;;;;;;22.13;100.00;97576.59;5036034;28;20033;-73
2022/07/09 09:59:52;;;;;;;5.68;3.00;;;;;;;21.65;100.00;97570.47;5036232;28;20036;-76
2022/07/09 10:02:20;;;;;;;5.97;2.63;;;;;;;21.48;100.00;97562.78;5038184;28;20021;-73
2022/07/09 10:04:45;;;;;;;6.45;2.28;;;;;;;21.43;100.00;97562.84;5032300;28;20040;-73
2022/07/09 10:07:13;;;;;;;7.75;2.78;;;;;;;21.60;100.00;97556.91;5038388;28;20036;-74
2022/07/09 10:09:39;;;;;;;7.97;3.05;;;;;;;21.72;100.00;97560.03;5035811;28;20233;-73
2022/07/09 10:12:05;;;;;;;5.35;2.53;;;;;;;22.23;100.00;97545.66;5036042;28;20492;-73
2022/07/09 10:14:33;;;;;;;7.38;2.55;;;;;;;22.84;96.00;97536.41;5035498;28;20080;-74
2022/07/09 10:17:15;;;;;;;8.68;2.53;;;;;;;22.83;97.58;97548.44;5034423;28;20467;-73
2022/07/09 10:20:05;;;;;;;4.28;2.63;;;;;;;22.13;100.00;97545.81;5035134;28;20086;-73
2022/07/09 10:22:44;;;;;;;6.13;3.10;;;;;;;22.50;99.72;97543.03;5036028;28;20035;-73
2022/07/09 10:25:22;;;;;;;5.15;2.65;;;;;;;23.25;98.51;97538.38;5033798;28;20044;-73
2022/07/09 10:27:48;;;;;;;3.80;2.30;;;;;;;23.67;93.29;97536.44;5035900;28;20041;-73
2022/07/09 10:30:27;;;;;;;4.65;2.15;;;;;;;23.35;92.41;97532.72;5034587;28;20496;-74
2022/07/09 10:33:00;;;;;;;6.03;2.58;;;;;;;23.12;93.35;97531.00;5037681;28;20033;-73
2022/07/09 10:35:27;;;;;;;4.20;2.40;;;;;;;23.22;93.97;97531.59;5033525;28;20044;-73
2022/07/09 10:37:54;;;;;;;7.05;2.80;;;;;;;23.04;95.13;97527.88;5036296;28;20061;-73
2022/07/09 10:40:21;;;;;;;4.75;2.45;;;;;;;23.03;98.71;97529.00;5035266;28;20036;-73
2022/07/09 10:43:00;;;;;;;7.07;2.70;;;;;;;22.97;93.08;97529.38;5037004;28;20031;-73
2022/07/09 10:45:44;;;;;;;5.22;2.70;;;;;;;23.81;91.66;97527.09;5034314;28;20087;-73
2022/07/09 10:48:12;;;;;;;5.38;2.78;;;;;;;24.40;88.50;97532.53;5036932;28;20044;-73
2022/07/09 10:50:43;;;;;;;4.05;2.40;;;;;;;24.28;88.39;97533.09;5050512;28;20036;-74
2022/07/09 10:53:10;;;;;;;5.05;2.50;;;;;;;23.98;85.76;97537.38;5013295;28;20078;-74
2022/07/09 10:55:35;;;;;;;5.35;2.50;;;;;;;24.10;87.07;97517.66;5034510;28;20037;-73
2022/07/09 10:58:07;;;;;;;4.95;2.58;;;;;;;24.42;86.04;97525.63;5035033;28;20519;-73
2022/07/09 11:00:33;;;;;;;4.32;2.42;;;;;;;23.89;87.27;97512.69;5035710;28;20037;-73
2022/07/09 11:03:04;;;;;;;4.50;2.25;;;;;;;23.35;89.71;97517.16;5036631;28;20025;-73
2022/07/09 11:05:32;;;;;;;4.35;2.08;;;;;;;23.19;90.48;97523.19;5036878;28;20037;-74
2022/07/09 11:08:03;;;;;;;4.45;2.17;;;;;;;23.34;92.71;97518.22;5035176;28;20098;-73
2022/07/09 11:10:29;;;;;;;;;;;;;;;23.28;90.29;97519.47;5031881;28;20033;-74
2022/07/09 11:12:58;;;;;;;5.90;2.72;;;;;;;23.14;92.73;97517.88;5034736;28;19917;-74
2022/07/09 11:15:26;;;;;;;7.25;2.90;;;;;;;22.95;93.94;97521.47;5033001;28;20095;-74
2022/07/09 11:18:06;;;;;;;4.18;2.20;;;;;;;22.93;90.73;97510.06;5033308;28;20912;-74
2022/07/09 11:20:40;;;;;;;4.23;2.00;;;;;;;23.73;89.13;97518.78;5033928;28;20547;-74
2022/07/09 11:23:08;;;;;;;4.80;2.22;;;;;;;24.54;84.90;97508.66;5035465;28;20367;-73